sensor_id;sensor_type;location;lat;lon;timestamp;P1;durP1;ratioP1;P2;durP2;ratioP2
82387;SDS011;72027;47.420;9.310;2023-09-12T00:02:00;10.00;;;8.68;;
82387;SDS011;72027;47.420;9.310;2023-09-12T00:04:28;14.05;;;8.82;;
82387;SDS011;72027;47.420;9.310;2023-09-12T00:06:57;10.68;;;8.82;;
82387;SDS011;72027;47.420;9.310;2023-09-12T00:09:25;10.63;;;7.68;;
82387;SDS011;72027;47.420;9.310;2023-09-12T00:11:54;9.35;;;7.75;;
82387;SDS011;72027;47.420;9.310;2023-09-12T00:14:21;12.57;;;9.38;;
82387;SDS011;72027;47.420;9.310;2023-09-12T00:16:49;14.65;;;8.70;;
82387;SDS011;72027;47.420;9.310;2023-09-12T00:19:19;12.27;;;8.82;;
82387;SDS011;72027;47.420;9.310;2023-09-12T00:21:46;13.30;;;8.90;;
82387;SDS011;72027;47.420;9.310;2023-09-12T00:24:15;10.88;;;8.57;;
82387;SDS011;72027;47.420;9.310;2023-09-12T00:26:43;12.45;;;9.15;;
82387;SDS011;72027;47.420;9.310;2023-09-12T00:29:11;12.35;;;9.25;;
82387;SDS011;72027;47.420;9.310;2023-09-12T00:31:39;9.77;;;7.75;;
82387;SDS011;72027;47.420;9.310;2023-09-12T00:34:07;15.50;;;9.82;;
82387;SDS011;72027;47.420;9.310;2023-09-12T00:36:35;14.05;;;10.35;;
82387;SDS011;72027;47.420;9.310;2023-09-12T00:39:04;11.52;;;9.80;;
82387;SDS011;72027;47.420;9.310;2023-09-12T00:41:33;12.82;;;10.00;;
82387;SDS011;72027;47.420;9.310;2023-09-12T00:44:01;10.55;;;9.00;;
82387;SDS011;72027;47.420;9.310;2023-09-12T00:46:28;10.82;;;9.13;;
82387;SDS011;72027;47.420;9.310;2023-09-12T00:48:57;13.20;;;9.18;;
82387;SDS011;72027;47.420;9.310;2023-09-12T00:51:26;9.95;;;8.38;;
82387;SDS011;72027;47.420;9.310;2023-09-12T00:53:55;14.50;;;9.45;;
82387;SDS011;72027;47.420;9.310;2023-09-12T00:56:24;11.45;;;9.23;;
82387;SDS011;72027;47.420;9.310;2023-09-12T00:58:53;10.38;;;8.70;;
82387;SDS011;72027;47.420;9.310;2023-09-12T01:01:21;13.20;;;9.25;;
82387;SDS011;72027;47.420;9.310;2023-09-12T01:03:50;12.07;;;9.82;;
82387;SDS011;72027;47.420;9.310;2023-09-12T01:06:18;20.33;;;10.32;;
82387;SDS011;72027;47.420;9.310;2023-09-12T01:08:49;11.88;;;8.82;;
82387;SDS011;72027;47.420;9.310;2023-09-12T01:11:17;12.90;;;9.82;;
82387;SDS011;72027;47.420;9.310;2023-09-12T01:13:45;12.70;;;9.57;;
82387;SDS011;72027;47.420;9.310;2023-09-12T01:16:14;11.85;;;8.77;;
82387;SDS011;72027;47.420;9.310;2023-09-12T01:18:41;10.88;;;8.63;;
82387;SDS011;72027;47.420;9.310;2023-09-12T01:21:18;13.10;;;9.32;;
82387;SDS011;72027;47.420;9.310;2023-09-12T01:24:15;11.13;;;8.93;;
82387;SDS011;72027;47.420;9.310;2023-09-12T01:27:17;16.02;;;9.73;;
82387;SDS011;72027;47.420;9.310;2023-09-12T01:29:49;12.88;;;8.93;;
82387;SDS011;72027;47.420;9.310;2023-09-12T01:32:21;12.25;;;9.80;;
82387;SDS011;72027;47.420;9.310;2023-09-12T01:34:48;13.38;;;9.57;;
82387;SDS011;72027;47.420;9.310;2023-09-12T01:37:16;18.48;;;9.15;;
82387;SDS011;72027;47.420;9.310;2023-09-12T01:39:44;12.23;;;8.88;;
82387;SDS011;72027;47.420;9.310;2023-09-12T01:42:13;10.13;;;8.88;;
82387;SDS011;72027;47.420;9.310;2023-09-12T01:44:45;15.73;;;9.88;;
82387;SDS011;72027;47.420;9.310;2023-09-12T01:47:14;13.38;;;8.43;;
82387;SDS011;72027;47.420;9.310;2023-09-12T01:49:45;12.95;;;8.85;;
82387;SDS011;72027;47.420;9.310;2023-09-12T01:52:15;11.73;;;9.57;;
82387;SDS011;72027;47.420;9.310;2023-09-12T01:54:43;9.82;;;8.57;;
82387;SDS011;72027;47.420;9.310;2023-09-12T01:57:12;13.73;;;9.57;;
82387;SDS011;72027;47.420;9.310;2023-09-12T01:59:41;12.40;;;8.98;;
82387;SDS011;72027;47.420;9.310;2023-09-12T02:02:10;11.68;;;9.35;;
82387;SDS011;72027;47.420;9.310;2023-09-12T02:04:38;12.10;;;9.68;;
82387;SDS011;72027;47.420;9.310;2023-09-12T02:07:06;10.48;;;8.70;;
82387;SDS011;72027;47.420;9.310;2023-09-12T02:09:34;10.70;;;8.80;;
82387;SDS011;72027;47.420;9.310;2023-09-12T02:12:02;13.45;;;9.68;;
82387;SDS011;72027;47.420;9.310;2023-09-12T02:14:29;12.85;;;9.73;;
82387;SDS011;72027;47.420;9.310;2023-09-12T02:16:58;11.65;;;8.48;;
82387;SDS011;72027;47.420;9.310;2023-09-12T02:19:28;11.85;;;9.32;;
82387;SDS011;72027;47.420;9.310;2023-09-12T02:21:55;13.07;;;8.55;;
82387;SDS011;72027;47.420;9.310;2023-09-12T02:24:23;11.13;;;9.25;;
82387;SDS011;72027;47.420;9.310;2023-09-12T02:26:51;13.15;;;9.30;;
82387;SDS011;72027;47.420;9.310;2023-09-12T02:29:19;15.93;;;10.05;;
82387;SDS011;72027;47.420;9.310;2023-09-12T02:31:47;12.85;;;9.88;;
82387;SDS011;72027;47.420;9.310;2023-09-12T02:34:14;11.77;;;9.88;;
82387;SDS011;72027;47.420;9.310;2023-09-12T02:36:43;10.45;;;8.95;;
82387;SDS011;72027;47.420;9.310;2023-09-12T02:39:11;15.52;;;9.68;;
82387;SDS011;72027;47.420;9.310;2023-09-12T02:41:39;14.75;;;8.73;;
82387;SDS011;72027;47.420;9.310;2023-09-12T02:44:07;12.35;;;9.23;;
82387;SDS011;72027;47.420;9.310;2023-09-12T02:46:36;13.55;;;9.50;;
82387;SDS011;72027;47.420;9.310;2023-09-12T02:49:04;13.02;;;8.82;;
82387;SDS011;72027;47.420;9.310;2023-09-12T02:51:32;13.75;;;9.43;;
82387;SDS011;72027;47.420;9.310;2023-09-12T02:54:01;13.48;;;9.32;;
82387;SDS011;72027;47.420;9.310;2023-09-12T02:56:29;10.75;;;9.63;;
82387;SDS011;72027;47.420;9.310;2023-09-12T02:58:57;13.25;;;10.55;;
82387;SDS011;72027;47.420;9.310;2023-09-12T03:01:24;12.07;;;9.88;;
82387;SDS011;72027;47.420;9.310;2023-09-12T03:03:55;13.38;;;10.80;;
82387;SDS011;72027;47.420;9.310;2023-09-12T03:06:23;12.43;;;9.48;;
82387;SDS011;72027;47.420;9.310;2023-09-12T03:08:50;12.95;;;9.98;;
82387;SDS011;72027;47.420;9.310;2023-09-12T03:11:19;15.57;;;10.15;;
82387;SDS011;72027;47.420;9.310;2023-09-12T03:13:47;11.95;;;9.55;;
82387;SDS011;72027;47.420;9.310;2023-09-12T03:16:15;11.63;;;9.82;;
82387;SDS011;72027;47.420;9.310;2023-09-12T03:18:43;10.57;;;9.48;;
82387;SDS011;72027;47.420;9.310;2023-09-12T03:21:11;11.48;;;9.45;;
82387;SDS011;72027;47.420;9.310;2023-09-12T03:23:38;12.07;;;9.45;;
82387;SDS011;72027;47.420;9.310;2023-09-12T03:26:07;10.27;;;8.70;;
82387;SDS011;72027;47.420;9.310;2023-09-12T03:28:37;11.38;;;9.40;;
82387;SDS011;72027;47.420;9.310;2023-09-12T03:31:05;9.40;;;8.38;;
82387;SDS011;72027;47.420;9.310;2023-09-12T03:33:35;10.07;;;8.95;;
82387;SDS011;72027;47.420;9.310;2023-09-12T03:36:03;11.18;;;9.10;;
82387;SDS011;72027;47.420;9.310;2023-09-12T03:38:31;10.70;;;8.70;;
82387;SDS011;72027;47.420;9.310;2023-09-12T03:40:59;11.30;;;9.98;;
82387;SDS011;72027;47.420;9.310;2023-09-12T03:43:27;12.48;;;9.32;;
82387;SDS011;72027;47.420;9.310;2023-09-12T03:45:56;13.40;;;10.50;;
82387;SDS011;72027;47.420;9.310;2023-09-12T03:48:24;10.48;;;9.07;;
82387;SDS011;72027;47.420;9.310;2023-09-12T03:50:52;12.00;;;8.82;;
82387;SDS011;72027;47.420;9.310;2023-09-12T03:53:20;14.20;;;9.95;;
82387;SDS011;72027;47.420;9.310;2023-09-12T03:55:48;10.45;;;8.73;;
82387;SDS011;72027;47.420;9.310;2023-09-12T03:58:15;11.63;;;9.02;;
82387;SDS011;72027;47.420;9.310;2023-09-12T04:00:43;14.50;;;10.82;;
82387;SDS011;72027;47.420;9.310;2023-09-12T04:03:13;12.63;;;8.73;;
82387;SDS011;72027;47.420;9.310;2023-09-12T04:05:42;14.30;;;10.13;;
82387;SDS011;72027;47.420;9.310;2023-09-12T04:08:10;13.23;;;9.13;;
82387;SDS011;72027;47.420;9.310;2023-09-12T04:10:38;11.82;;;10.23;;
82387;SDS011;72027;47.420;9.310;2023-09-12T04:13:06;11.10;;;9.75;;
82387;SDS011;72027;47.420;9.310;2023-09-12T04:15:34;12.23;;;9.55;;
82387;SDS011;72027;47.420;9.310;2023-09-12T04:18:02;11.45;;;9.38;;
82387;SDS011;72027;47.420;9.310;2023-09-12T04:20:31;13.82;;;9.73;;
82387;SDS011;72027;47.420;9.310;2023-09-12T04:23:00;16.27;;;9.98;;
82387;SDS011;72027;47.420;9.310;2023-09-12T04:25:30;14.32;;;9.18;;
82387;SDS011;72027;47.420;9.310;2023-09-12T04:27:59;17.83;;;11.48;;
82387;SDS011;72027;47.420;9.310;2023-09-12T04:30:27;14.07;;;9.65;;
82387;SDS011;72027;47.420;9.310;2023-09-12T04:32:55;16.20;;;9.68;;
82387;SDS011;72027;47.420;9.310;2023-09-12T04:35:23;15.25;;;10.88;;
82387;SDS011;72027;47.420;9.310;2023-09-12T04:37:53;12.80;;;10.63;;
82387;SDS011;72027;47.420;9.310;2023-09-12T04:40:20;19.52;;;10.70;;
82387;SDS011;72027;47.420;9.310;2023-09-12T04:42:48;12.10;;;9.63;;
82387;SDS011;72027;47.420;9.310;2023-09-12T04:45:16;12.02;;;9.55;;
82387;SDS011;72027;47.420;9.310;2023-09-12T04:47:44;11.93;;;9.68;;
82387;SDS011;72027;47.420;9.310;2023-09-12T04:50:12;13.02;;;10.63;;
82387;SDS011;72027;47.420;9.310;2023-09-12T04:52:39;12.93;;;10.18;;
82387;SDS011;72027;47.420;9.310;2023-09-12T04:55:09;15.73;;;10.82;;
82387;SDS011;72027;47.420;9.310;2023-09-12T04:57:36;13.55;;;9.02;;
82387;SDS011;72027;47.420;9.310;2023-09-12T05:00:07;15.40;;;10.02;;
82387;SDS011;72027;47.420;9.310;2023-09-12T05:02:37;20.98;;;10.10;;
82387;SDS011;72027;47.420;9.310;2023-09-12T05:05:05;13.20;;;9.52;;
82387;SDS011;72027;47.420;9.310;2023-09-12T05:07:33;12.73;;;8.85;;
82387;SDS011;72027;47.420;9.310;2023-09-12T05:10:01;14.00;;;8.93;;
82387;SDS011;72027;47.420;9.310;2023-09-12T05:12:31;11.52;;;9.05;;
82387;SDS011;72027;47.420;9.310;2023-09-12T05:14:59;11.18;;;9.40;;
82387;SDS011;72027;47.420;9.310;2023-09-12T05:17:27;12.55;;;10.02;;
82387;SDS011;72027;47.420;9.310;2023-09-12T05:19:55;10.85;;;8.93;;
82387;SDS011;72027;47.420;9.310;2023-09-12T05:22:23;12.18;;;9.18;;
82387;SDS011;72027;47.420;9.310;2023-09-12T05:24:50;12.70;;;10.75;;
82387;SDS011;72027;47.420;9.310;2023-09-12T05:27:18;16.77;;;10.60;;
82387;SDS011;72027;47.420;9.310;2023-09-12T05:29:47;11.63;;;9.25;;
82387;SDS011;72027;47.420;9.310;2023-09-12T05:32:15;12.88;;;10.25;;
82387;SDS011;72027;47.420;9.310;2023-09-12T05:34:43;12.93;;;10.07;;
82387;SDS011;72027;47.420;9.310;2023-09-12T05:37:15;10.07;;;9.05;;
82387;SDS011;72027;47.420;9.310;2023-09-12T05:39:43;11.10;;;9.57;;
82387;SDS011;72027;47.420;9.310;2023-09-12T05:42:11;12.30;;;10.30;;
82387;SDS011;72027;47.420;9.310;2023-09-12T05:44:41;13.50;;;9.73;;
82387;SDS011;72027;47.420;9.310;2023-09-12T05:49:43;15.63;;;10.73;;
82387;SDS011;72027;47.420;9.310;2023-09-12T05:52:11;11.73;;;9.98;;
82387;SDS011;72027;47.420;9.310;2023-09-12T05:54:39;17.45;;;9.82;;
82387;SDS011;72027;47.420;9.310;2023-09-12T05:57:08;14.65;;;11.25;;
82387;SDS011;72027;47.420;9.310;2023-09-12T05:59:37;19.17;;;9.55;;
82387;SDS011;72027;47.420;9.310;2023-09-12T06:02:06;10.80;;;8.57;;
82387;SDS011;72027;47.420;9.310;2023-09-12T06:04:36;10.60;;;8.65;;
82387;SDS011;72027;47.420;9.310;2023-09-12T06:07:05;9.70;;;8.63;;
82387;SDS011;72027;47.420;9.310;2023-09-12T06:09:33;13.15;;;10.30;;
82387;SDS011;72027;47.420;9.310;2023-09-12T06:12:01;14.25;;;9.70;;
82387;SDS011;72027;47.420;9.310;2023-09-12T06:14:29;15.57;;;9.45;;
82387;SDS011;72027;47.420;9.310;2023-09-12T06:16:56;12.30;;;9.73;;
82387;SDS011;72027;47.420;9.310;2023-09-12T06:19:24;14.80;;;9.23;;
82387;SDS011;72027;47.420;9.310;2023-09-12T06:21:52;11.45;;;9.23;;
82387;SDS011;72027;47.420;9.310;2023-09-12T06:24:23;14.75;;;10.73;;
82387;SDS011;72027;47.420;9.310;2023-09-12T06:26:50;12.95;;;10.20;;
82387;SDS011;72027;47.420;9.310;2023-09-12T06:29:18;11.45;;;9.00;;
82387;SDS011;72027;47.420;9.310;2023-09-12T06:31:46;12.57;;;9.63;;
82387;SDS011;72027;47.420;9.310;2023-09-12T06:34:14;12.20;;;8.95;;
82387;SDS011;72027;47.420;9.310;2023-09-12T06:36:41;16.65;;;9.93;;
82387;SDS011;72027;47.420;9.310;2023-09-12T06:39:11;18.88;;;11.20;;
82387;SDS011;72027;47.420;9.310;2023-09-12T06:41:40;12.77;;;10.23;;
82387;SDS011;72027;47.420;9.310;2023-09-12T06:44:08;15.15;;;10.18;;
82387;SDS011;72027;47.420;9.310;2023-09-12T06:46:35;10.35;;;9.07;;
82387;SDS011;72027;47.420;9.310;2023-09-12T06:49:04;13.40;;;9.55;;
82387;SDS011;72027;47.420;9.310;2023-09-12T06:51:32;10.95;;;8.95;;
82387;SDS011;72027;47.420;9.310;2023-09-12T06:54:03;13.30;;;9.18;;
82387;SDS011;72027;47.420;9.310;2023-09-12T06:56:31;14.68;;;9.73;;
82387;SDS011;72027;47.420;9.310;2023-09-12T06:59:05;13.18;;;9.20;;
82387;SDS011;72027;47.420;9.310;2023-09-12T07:01:33;10.40;;;7.95;;
82387;SDS011;72027;47.420;9.310;2023-09-12T07:04:01;10.05;;;7.97;;
82387;SDS011;72027;47.420;9.310;2023-09-12T07:06:29;14.55;;;8.70;;
82387;SDS011;72027;47.420;9.310;2023-09-12T07:08:59;12.38;;;9.32;;
82387;SDS011;72027;47.420;9.310;2023-09-12T07:11:27;9.55;;;8.27;;
82387;SDS011;72027;47.420;9.310;2023-09-12T07:13:54;9.73;;;8.02;;
82387;SDS011;72027;47.420;9.310;2023-09-12T07:16:24;10.23;;;8.52;;
82387;SDS011;72027;47.420;9.310;2023-09-12T07:18:51;12.52;;;9.25;;
82387;SDS011;72027;47.420;9.310;2023-09-12T07:21:20;9.38;;;8.40;;
82387;SDS011;72027;47.420;9.310;2023-09-12T07:23:48;13.57;;;8.45;;
82387;SDS011;72027;47.420;9.310;2023-09-12T07:26:16;14.88;;;8.43;;
82387;SDS011;72027;47.420;9.310;2023-09-12T07:28:44;10.63;;;7.93;;
82387;SDS011;72027;47.420;9.310;2023-09-12T07:31:12;9.43;;;8.15;;
82387;SDS011;72027;47.420;9.310;2023-09-12T07:33:41;10.13;;;8.55;;
82387;SDS011;72027;47.420;9.310;2023-09-12T07:36:09;10.68;;;8.70;;
82387;SDS011;72027;47.420;9.310;2023-09-12T07:38:38;10.05;;;8.38;;
82387;SDS011;72027;47.420;9.310;2023-09-12T07:41:06;12.93;;;9.07;;
82387;SDS011;72027;47.420;9.310;2023-09-12T07:43:34;10.68;;;9.38;;
82387;SDS011;72027;47.420;9.310;2023-09-12T07:46:03;9.30;;;8.18;;
82387;SDS011;72027;47.420;9.310;2023-09-12T07:48:31;9.50;;;8.23;;
82387;SDS011;72027;47.420;9.310;2023-09-12T07:51:01;10.43;;;8.85;;
82387;SDS011;72027;47.420;9.310;2023-09-12T07:53:28;22.90;;;9.65;;
82387;SDS011;72027;47.420;9.310;2023-09-12T07:55:59;9.75;;;8.52;;
82387;SDS011;72027;47.420;9.310;2023-09-12T07:58:27;11.65;;;8.77;;
82387;SDS011;72027;47.420;9.310;2023-09-12T08:00:55;10.18;;;8.70;;
82387;SDS011;72027;47.420;9.310;2023-09-12T08:03:22;10.82;;;8.70;;
82387;SDS011;72027;47.420;9.310;2023-09-12T08:05:55;9.25;;;8.23;;
82387;SDS011;72027;47.420;9.310;2023-09-12T08:08:24;12.15;;;8.15;;
82387;SDS011;72027;47.420;9.310;2023-09-12T08:10:52;10.82;;;8.82;;
82387;SDS011;72027;47.420;9.310;2023-09-12T08:13:20;13.43;;;8.73;;
82387;SDS011;72027;47.420;9.310;2023-09-12T08:15:48;9.32;;;8.38;;
82387;SDS011;72027;47.420;9.310;2023-09-12T08:18:16;12.18;;;8.85;;
82387;SDS011;72027;47.420;9.310;2023-09-12T08:20:44;11.00;;;8.82;;
82387;SDS011;72027;47.420;9.310;2023-09-12T08:23:12;10.23;;;8.05;;
82387;SDS011;72027;47.420;9.310;2023-09-12T08:25:41;8.75;;;7.90;;
82387;SDS011;72027;47.420;9.310;2023-09-12T08:28:08;17.02;;;8.27;;
82387;SDS011;72027;47.420;9.310;2023-09-12T08:30:36;10.05;;;8.13;;
82387;SDS011;72027;47.420;9.310;2023-09-12T08:33:04;9.48;;;8.32;;
82387;SDS011;72027;47.420;9.310;2023-09-12T08:35:33;8.32;;;7.10;;
82387;SDS011;72027;47.420;9.310;2023-09-12T08:38:00;10.55;;;8.63;;
82387;SDS011;72027;47.420;9.310;2023-09-12T08:40:28;10.93;;;8.57;;
82387;SDS011;72027;47.420;9.310;2023-09-12T08:42:58;10.70;;;8.88;;
82387;SDS011;72027;47.420;9.310;2023-09-12T08:45:26;12.65;;;9.63;;
82387;SDS011;72027;47.420;9.310;2023-09-12T08:47:56;11.35;;;8.00;;
82387;SDS011;72027;47.420;9.310;2023-09-12T08:50:27;13.20;;;8.35;;
82387;SDS011;72027;47.420;9.310;2023-09-12T08:52:59;9.85;;;8.57;;
82387;SDS011;72027;47.420;9.310;2023-09-12T08:55:33;8.63;;;7.72;;
82387;SDS011;72027;47.420;9.310;2023-09-12T08:58:04;13.05;;;8.27;;
82387;SDS011;72027;47.420;9.310;2023-09-12T09:00:33;10.93;;;7.88;;
82387;SDS011;72027;47.420;9.310;2023-09-12T09:03:02;11.70;;;8.55;;
82387;SDS011;72027;47.420;9.310;2023-09-12T09:05:31;13.38;;;7.75;;
82387;SDS011;72027;47.420;9.310;2023-09-12T09:08:01;11.48;;;8.23;;
82387;SDS011;72027;47.420;9.310;2023-09-12T09:10:30;17.23;;;8.52;;
82387;SDS011;72027;47.420;9.310;2023-09-12T09:13:17;14.98;;;8.90;;
82387;SDS011;72027;47.420;9.310;2023-09-12T09:15:45;11.00;;;8.52;;
82387;SDS011;72027;47.420;9.310;2023-09-12T09:18:13;13.90;;;9.75;;
82387;SDS011;72027;47.420;9.310;2023-09-12T09:20:41;15.35;;;8.57;;
82387;SDS011;72027;47.420;9.310;2023-09-12T09:23:11;15.02;;;8.95;;
82387;SDS011;72027;47.420;9.310;2023-09-12T09:25:39;14.13;;;9.05;;
82387;SDS011;72027;47.420;9.310;2023-09-12T09:28:16;10.98;;;9.43;;
82387;SDS011;72027;47.420;9.310;2023-09-12T09:30:45;12.18;;;9.15;;
82387;SDS011;72027;47.420;9.310;2023-09-12T09:33:15;10.93;;;8.15;;
82387;SDS011;72027;47.420;9.310;2023-09-12T09:35:43;11.02;;;9.30;;
82387;SDS011;72027;47.420;9.310;2023-09-12T09:38:14;12.13;;;8.32;;
82387;SDS011;72027;47.420;9.310;2023-09-12T09:40:43;10.00;;;8.73;;
82387;SDS011;72027;47.420;9.310;2023-09-12T09:43:11;11.95;;;8.30;;
82387;SDS011;72027;47.420;9.310;2023-09-12T09:45:45;12.65;;;8.27;;
82387;SDS011;72027;47.420;9.310;2023-09-12T09:48:23;11.32;;;8.02;;
82387;SDS011;72027;47.420;9.310;2023-09-12T09:50:53;17.02;;;7.90;;
82387;SDS011;72027;47.420;9.310;2023-09-12T09:53:28;10.15;;;7.45;;
82387;SDS011;72027;47.420;9.310;2023-09-12T09:56:07;11.75;;;8.50;;
82387;SDS011;72027;47.420;9.310;2023-09-12T09:58:36;13.82;;;9.07;;
82387;SDS011;72027;47.420;9.310;2023-09-12T10:01:05;10.40;;;8.60;;
82387;SDS011;72027;47.420;9.310;2023-09-12T10:03:37;9.27;;;7.40;;
82387;SDS011;72027;47.420;9.310;2023-09-12T10:06:05;13.48;;;8.30;;
82387;SDS011;72027;47.420;9.310;2023-09-12T10:08:36;9.70;;;8.07;;
82387;SDS011;72027;47.420;9.310;2023-09-12T10:11:07;13.00;;;7.90;;
82387;SDS011;72027;47.420;9.310;2023-09-12T10:13:35;13.05;;;7.95;;
82387;SDS011;72027;47.420;9.310;2023-09-12T10:16:09;11.85;;;7.88;;
82387;SDS011;72027;47.420;9.310;2023-09-12T10:18:50;8.38;;;7.55;;
82387;SDS011;72027;47.420;9.310;2023-09-12T10:21:28;8.32;;;7.53;;
82387;SDS011;72027;47.420;9.310;2023-09-12T10:23:58;11.45;;;6.88;;
82387;SDS011;72027;47.420;9.310;2023-09-12T10:26:27;11.45;;;7.25;;
82387;SDS011;72027;47.420;9.310;2023-09-12T10:28:58;10.75;;;7.28;;
82387;SDS011;72027;47.420;9.310;2023-09-12T10:31:28;8.38;;;6.90;;
82387;SDS011;72027;47.420;9.310;2023-09-12T10:33:57;13.98;;;7.20;;
82387;SDS011;72027;47.420;9.310;2023-09-12T10:36:26;10.18;;;7.25;;
82387;SDS011;72027;47.420;9.310;2023-09-12T10:38:56;8.45;;;7.10;;
82387;SDS011;72027;47.420;9.310;2023-09-12T10:41:26;9.80;;;7.28;;
82387;SDS011;72027;47.420;9.310;2023-09-12T10:43:54;11.80;;;8.20;;
82387;SDS011;72027;47.420;9.310;2023-09-12T10:46:25;10.70;;;7.75;;
82387;SDS011;72027;47.420;9.310;2023-09-12T10:48:54;10.55;;;7.20;;
82387;SDS011;72027;47.420;9.310;2023-09-12T10:51:21;8.98;;;7.30;;
82387;SDS011;72027;47.420;9.310;2023-09-12T10:53:49;8.00;;;7.15;;
82387;SDS011;72027;47.420;9.310;2023-09-12T10:56:20;10.00;;;7.97;;
82387;SDS011;72027;47.420;9.310;2023-09-12T11:01:37;13.32;;;8.65;;
82387;SDS011;72027;47.420;9.310;2023-09-12T11:07:01;9.85;;;8.45;;
82387;SDS011;72027;47.420;9.310;2023-09-12T11:09:29;11.45;;;10.25;;
82387;SDS011;72027;47.420;9.310;2023-09-12T11:11:58;10.90;;;7.97;;
82387;SDS011;72027;47.420;9.310;2023-09-12T11:14:29;11.45;;;8.80;;
82387;SDS011;72027;47.420;9.310;2023-09-12T11:17:19;9.23;;;7.40;;
82387;SDS011;72027;47.420;9.310;2023-09-12T11:19:50;13.05;;;8.43;;
82387;SDS011;72027;47.420;9.310;2023-09-12T11:22:23;9.32;;;8.32;;
82387;SDS011;72027;47.420;9.310;2023-09-12T11:24:52;17.20;;;9.52;;
82387;SDS011;72027;47.420;9.310;2023-09-12T11:27:22;10.48;;;9.30;;
82387;SDS011;72027;47.420;9.310;2023-09-12T11:29:51;11.40;;;9.88;;
82387;SDS011;72027;47.420;9.310;2023-09-12T11:32:27;14.38;;;9.55;;
82387;SDS011;72027;47.420;9.310;2023-09-12T11:35:00;10.93;;;9.00;;
82387;SDS011;72027;47.420;9.310;2023-09-12T11:37:32;14.68;;;9.88;;
82387;SDS011;72027;47.420;9.310;2023-09-12T11:40:06;9.32;;;8.43;;
82387;SDS011;72027;47.420;9.310;2023-09-12T11:42:43;11.00;;;9.30;;
82387;SDS011;72027;47.420;9.310;2023-09-12T11:45:12;12.73;;;8.82;;
82387;SDS011;72027;47.420;9.310;2023-09-12T11:47:40;9.30;;;8.30;;
82387;SDS011;72027;47.420;9.310;2023-09-12T11:50:12;9.35;;;8.20;;
82387;SDS011;72027;47.420;9.310;2023-09-12T11:52:58;11.07;;;8.02;;
82387;SDS011;72027;47.420;9.310;2023-09-12T11:55:26;8.57;;;7.68;;
82387;SDS011;72027;47.420;9.310;2023-09-12T11:57:56;15.00;;;9.65;;
82387;SDS011;72027;47.420;9.310;2023-09-12T12:00:24;11.52;;;8.85;;
82387;SDS011;72027;47.420;9.310;2023-09-12T12:02:53;8.60;;;7.80;;
82387;SDS011;72027;47.420;9.310;2023-09-12T12:05:22;10.55;;;8.52;;
82387;SDS011;72027;47.420;9.310;2023-09-12T12:07:50;10.32;;;8.52;;
82387;SDS011;72027;47.420;9.310;2023-09-12T12:10:20;14.57;;;8.63;;
82387;SDS011;72027;47.420;9.310;2023-09-12T12:12:52;9.52;;;7.85;;
82387;SDS011;72027;47.420;9.310;2023-09-12T12:15:20;10.43;;;8.07;;
82387;SDS011;72027;47.420;9.310;2023-09-12T12:17:48;11.23;;;8.48;;
82387;SDS011;72027;47.420;9.310;2023-09-12T12:20:16;7.97;;;7.18;;
82387;SDS011;72027;47.420;9.310;2023-09-12T12:22:45;9.35;;;7.32;;
82387;SDS011;72027;47.420;9.310;2023-09-12T12:25:13;14.50;;;9.07;;
82387;SDS011;72027;47.420;9.310;2023-09-12T12:27:42;10.77;;;8.65;;
82387;SDS011;72027;47.420;9.310;2023-09-12T12:30:10;10.82;;;8.20;;
82387;SDS011;72027;47.420;9.310;2023-09-12T12:32:40;9.90;;;8.88;;
82387;SDS011;72027;47.420;9.310;2023-09-12T12:35:08;9.20;;;8.20;;
82387;SDS011;72027;47.420;9.310;2023-09-12T12:37:37;9.40;;;8.27;;
82387;SDS011;72027;47.420;9.310;2023-09-12T12:40:09;13.07;;;9.05;;
82387;SDS011;72027;47.420;9.310;2023-09-12T12:42:39;9.15;;;7.10;;
82387;SDS011;72027;47.420;9.310;2023-09-12T12:45:19;9.40;;;8.40;;
82387;SDS011;72027;47.420;9.310;2023-09-12T12:47:50;8.90;;;7.72;;
82387;SDS011;72027;47.420;9.310;2023-09-12T12:50:19;10.07;;;9.15;;
82387;SDS011;72027;47.420;9.310;2023-09-12T12:52:48;10.05;;;7.97;;
82387;SDS011;72027;47.420;9.310;2023-09-12T12:55:20;10.55;;;7.22;;
82387;SDS011;72027;47.420;9.310;2023-09-12T12:57:48;11.13;;;8.20;;
82387;SDS011;72027;47.420;9.310;2023-09-12T13:00:16;11.45;;;8.23;;
82387;SDS011;72027;47.420;9.310;2023-09-12T13:02:45;12.07;;;8.20;;
82387;SDS011;72027;47.420;9.310;2023-09-12T13:05:19;11.40;;;8.48;;
82387;SDS011;72027;47.420;9.310;2023-09-12T13:07:49;10.98;;;8.13;;
82387;SDS011;72027;47.420;9.310;2023-09-12T13:10:18;9.70;;;7.97;;
82387;SDS011;72027;47.420;9.310;2023-09-12T13:12:47;8.77;;;7.97;;
82387;SDS011;72027;47.420;9.310;2023-09-12T13:15:15;8.43;;;7.63;;
82387;SDS011;72027;47.420;9.310;2023-09-12T13:17:44;9.25;;;7.25;;
82387;SDS011;72027;47.420;9.310;2023-09-12T13:20:13;7.82;;;7.05;;
82387;SDS011;72027;47.420;9.310;2023-09-12T13:22:40;8.82;;;7.50;;
82387;SDS011;72027;47.420;9.310;2023-09-12T13:25:09;8.75;;;7.80;;
82387;SDS011;72027;47.420;9.310;2023-09-12T13:27:38;8.40;;;7.45;;
82387;SDS011;72027;47.420;9.310;2023-09-12T13:30:07;8.23;;;7.43;;
82387;SDS011;72027;47.420;9.310;2023-09-12T13:32:35;9.95;;;7.50;;
82387;SDS011;72027;47.420;9.310;2023-09-12T13:35:03;10.55;;;8.23;;
82387;SDS011;72027;47.420;9.310;2023-09-12T13:37:31;8.30;;;7.35;;
82387;SDS011;72027;47.420;9.310;2023-09-12T13:39:59;8.82;;;7.90;;
82387;SDS011;72027;47.420;9.310;2023-09-12T13:42:27;9.90;;;8.38;;
82387;SDS011;72027;47.420;9.310;2023-09-12T13:44:58;11.70;;;8.57;;
82387;SDS011;72027;47.420;9.310;2023-09-12T13:47:26;12.23;;;7.97;;
82387;SDS011;72027;47.420;9.310;2023-09-12T13:49:54;9.45;;;7.97;;
82387;SDS011;72027;47.420;9.310;2023-09-12T13:52:22;9.27;;;8.18;;
82387;SDS011;72027;47.420;9.310;2023-09-12T13:54:50;15.13;;;8.20;;
82387;SDS011;72027;47.420;9.310;2023-09-12T13:57:18;8.73;;;7.82;;
82387;SDS011;72027;47.420;9.310;2023-09-12T13:59:46;10.85;;;8.18;;
82387;SDS011;72027;47.420;9.310;2023-09-12T14:02:15;9.75;;;8.52;;
82387;SDS011;72027;47.420;9.310;2023-09-12T14:04:44;11.18;;;9.93;;
82387;SDS011;72027;47.420;9.310;2023-09-12T14:07:15;11.45;;;9.68;;
82387;SDS011;72027;47.420;9.310;2023-09-12T14:09:42;12.63;;;9.82;;
82387;SDS011;72027;47.420;9.310;2023-09-12T14:12:10;14.18;;;10.60;;
82387;SDS011;72027;47.420;9.310;2023-09-12T14:14:51;23.05;;;12.23;;
82387;SDS011;72027;47.420;9.310;2023-09-12T14:17:32;15.35;;;8.50;;
82387;SDS011;72027;47.420;9.310;2023-09-12T14:20:01;9.77;;;7.60;;
82387;SDS011;72027;47.420;9.310;2023-09-12T14:22:29;6.85;;;4.97;;
82387;SDS011;72027;47.420;9.310;2023-09-12T14:24:58;7.70;;;2.83;;
82387;SDS011;72027;47.420;9.310;2023-09-12T14:27:28;10.82;;;3.85;;
82387;SDS011;72027;47.420;9.310;2023-09-12T14:29:55;10.27;;;2.40;;
82387;SDS011;72027;47.420;9.310;2023-09-12T14:32:25;12.93;;;1.80;;
82387;SDS011;72027;47.420;9.310;2023-09-12T14:34:54;3.67;;;1.83;;
82387;SDS011;72027;47.420;9.310;2023-09-12T14:37:24;31.60;;;13.25;;
82387;SDS011;72027;47.420;9.310;2023-09-12T14:39:53;7.22;;;3.90;;
82387;SDS011;72027;47.420;9.310;2023-09-12T14:42:22;13.57;;;2.47;;
82387;SDS011;72027;47.420;9.310;2023-09-12T14:44:50;9.45;;;2.10;;
82387;SDS011;72027;47.420;9.310;2023-09-12T14:47:17;4.45;;;1.75;;
82387;SDS011;72027;47.420;9.310;2023-09-12T14:49:45;5.15;;;1.75;;
82387;SDS011;72027;47.420;9.310;2023-09-12T14:52:18;3.63;;;1.60;;
82387;SDS011;72027;47.420;9.310;2023-09-12T14:54:51;9.43;;;2.08;;
82387;SDS011;72027;47.420;9.310;2023-09-12T14:57:19;6.78;;;1.65;;